Flight Track Log - Related Links

Times and Time Zones

All times are in EDT time to prevent confusion due to time zone crossing. See the SWA378 flight status page for this flight to view local times or setup timezone preferences in your user account.

Time Position Orientation Groundspeed Altitude Reporting Facility
EDT Latitude Longitude Course Direction KTS MPH feet Rate Location/Type
Tue 11:33:04 AM 37.3500 -121.9167 130° Southeast 144 166 1,000  Level Northern Cal TRACON
Tue 11:34:03 AM 37.3167 -121.8667 130° Southeast 218 251 3,500 2,899 Climbing Northern Cal TRACON
Tue 11:34:33 AM 37.2900 -121.8414 143° Southeast 255 293 5,300 3,824 Climbing Oakland Center
Tue 11:35:34 AM 37.2336 -121.7761 137° Southeast 275 316 9,300 3,024 Climbing Oakland Center
Tue 11:36:36 AM 37.1708 -121.7050 138° Southeast 304 350 11,500 2,634 Climbing Oakland Center
Tue 11:37:37 AM 37.0933 -121.6147 137° Southeast 369 425 14,700 2,878 Climbing Oakland Center
Tue 11:38:39 AM 37.0147 -121.5197 136° Southeast 402 463 17,400 2,683 Climbing Oakland Center
Tue 11:39:40 AM 36.9247 -121.4172 138° Southeast 419 482 20,200 2,508 Climbing Oakland Center
Tue 11:40:41 AM 36.8319 -121.3147 139° Southeast 438 504 22,500 2,488 Climbing Oakland Center
Tue 11:41:43 AM 36.7206 -121.1853 137° Southeast 460 529 25,300 2,049 Climbing Oakland Center
Tue 11:42:44 AM 36.6208 -121.0706 137° Southeast 476 548 26,700 1,512 Climbing Oakland Center
Tue 11:43:46 AM 36.5158 -120.9553 139° Southeast 490 564 28,400 1,951 Climbing Oakland Center
Tue 11:44:47 AM 36.4111 -120.8292 136° Southeast 522 601 30,700 1,279 Climbing Oakland Center
Tue 11:45:48 AM 36.3094 -120.7158 138° Southeast 491 565 31,000 146 Climbing Oakland Center
Tue 11:46:50 AM 36.2072 -120.6006 138° Southeast 501 577 31,000  Level Oakland Center
Tue 11:47:51 AM 36.1078 -120.4886 138° Southeast 483 556 31,000  Level Oakland Center
Tue 11:48:53 AM 36.0069 -120.3767 138° Southeast 479 551 31,000  Level Oakland Center
Tue 11:49:54 AM 35.9039 -120.2619 138° Southeast 488 562 31,000  Level Oakland Center
Tue 11:50:55 AM 35.8039 -120.1531 139° Southeast 474 545 31,000  Level Oakland Center
Tue 11:51:57 AM 35.7019 -120.0411 138° Southeast 480 552 31,000  Level Oakland Center
Tue 11:52:58 AM 35.5753 -119.9164 141° Southeast 481 554 31,000  Level Oakland Center
Tue 11:54:00 AM 35.4653 -119.8222 145° Southeast 477 549 31,000  Level Oakland Center
Tue 11:55:01 AM 35.3569 -119.7286 145° Southeast 474 545 31,000  Level Oakland Center
Tue 11:55:37 AM 35.2931 -119.6722 144° Southeast 473 544 31,000 -61 Level Los Angeles Center
Tue 11:56:39 AM 35.1861 -119.5817 145° Southeast 469 540 30,900  Descending Los Angeles Center
Tue 11:57:42 AM 35.0797 -119.4903 145° Southeast 466 536 31,000 48 Climbing Los Angeles Center
Tue 11:58:44 AM 34.9742 -119.3997 145° Southeast 463 533 31,000 -435 Level Los Angeles Center
Tue 11:59:46 AM 34.8672 -119.3083 145° Southeast 467 537 30,100 -1,645 Descending Los Angeles Center
Tue 12:00:48 PM 34.7631 -119.2197 145° Southeast 458 527 27,600 -2,565 Descending Los Angeles Center
Tue 12:01:50 PM 34.6428 -119.1194 146° Southeast 437 503 24,800 -2,419 Descending Los Angeles Center
Tue 12:02:52 PM 34.5494 -119.0428 146° Southeast 418 481 22,600 -2,177 Descending Los Angeles Center
Tue 12:03:54 PM 34.4597 -118.9678 145° Southeast 394 453 20,300 -2,274 Descending Los Angeles Center
Tue 12:04:56 PM 34.3714 -118.8942 145° Southeast 386 444 17,900 -1,824 Descending Los Angeles Center
Tue 12:05:59 PM 34.2611 -118.8611 166° South 340 391 16,500 -1,296 Descending Los Angeles Center
Tue 12:07:01 PM 34.1769 -118.8592 179° South 305 351 15,200 -1,452 Descending Los Angeles Center
Tue 12:08:03 PM 34.0958 -118.8503 175° South 308 354 13,500 -1,548 Descending Los Angeles Center
Tue 12:09:05 PM 34.0594 -118.7439 112° Southeast 327 376 12,000 -1,161 Descending Los Angeles Center
Tue 12:10:07 PM 34.0428 -118.6478 102° East 293 337 11,100 -1,161 Descending Los Angeles Center
Tue 12:11:09 PM 34.0267 -118.5536 102° East 268 308 9,600 -1,452 Descending Los Angeles Center
Tue 12:12:11 PM 34.0119 -118.4675 102° East 263 303 8,100 -1,500 Descending Los Angeles Center
Tue 12:13:13 PM 34.0156 -118.3750 87° East 267 307 6,500 -1,113 Descending Los Angeles Center
Tue 12:14:15 PM 34.0258 -118.2892 82° East 258 297 5,800 -823 Descending Los Angeles Center
Tue 12:15:17 PM 34.0339 -118.2192 82° East 212 244 4,800 -1,488 Descending Los Angeles Center
Tue 12:16:20 PM 34.0089 -118.1819 129° Southeast 203 234 2,700 -1,065 Descending Los Angeles Center
Tue 12:17:21 PM 33.9731 -118.2242 224° Southwest 179 206 2,600 -293 Descending Los Angeles Center
Tue 12:18:23 PM 33.9644 -118.2856 260° West 163 188 2,100 -629 Descending Los Angeles Center
Tue 12:19:25 PM 33.9597 -118.3331 263° West 145 167 1,300 -677 Descending Los Angeles Center
Tue 12:20:27 PM 33.9556 -118.3772 264° West 134 154 700 -532 Descending Los Angeles Center
Tue 12:21:29 PM 33.9506 -118.4267 263° West 132 152 200 -484 Descending Los Angeles Center
Tue 12:23:00 PM 33.9425 -118.4081 270° West  Level Estimated
Tue 12:30:00 PM 33.9425 -118.4081 228° Southwest  Level Estimated

Login

Don't have an account? Register now (free) for customized features, flight alerts, and more!